sensor_id;sensor_type;location;lat;lon;timestamp;P1;durP1;ratioP1;P2;durP2;ratioP2
16029;SDS011;34770;49.272;11.070;2023-03-14T00:00:04;1.30;;;1.30;;
16029;SDS011;34770;49.272;11.070;2023-03-14T00:02:33;1.35;;;1.27;;
16029;SDS011;34770;49.272;11.070;2023-03-14T00:04:59;1.00;;;1.00;;
16029;SDS011;34770;49.272;11.070;2023-03-14T00:07:24;2.35;;;1.20;;
16029;SDS011;34770;49.272;11.070;2023-03-14T00:09:50;4.35;;;1.35;;
16029;SDS011;34770;49.272;11.070;2023-03-14T00:12:16;2.40;;;1.20;;
16029;SDS011;34770;49.272;11.070;2023-03-14T00:14:41;1.70;;;1.60;;
16029;SDS011;34770;49.272;11.070;2023-03-14T00:17:08;1.27;;;1.27;;
16029;SDS011;34770;49.272;11.070;2023-03-14T00:19:34;1.40;;;1.30;;
16029;SDS011;34770;49.272;11.070;2023-03-14T00:21:59;1.70;;;1.60;;
16029;SDS011;34770;49.272;11.070;2023-03-14T00:24:24;1.55;;;1.45;;
16029;SDS011;34770;49.272;11.070;2023-03-14T00:26:50;1.25;;;1.13;;
16029;SDS011;34770;49.272;11.070;2023-03-14T00:29:15;1.92;;;1.50;;
16029;SDS011;34770;49.272;11.070;2023-03-14T00:31:41;2.17;;;1.35;;
16029;SDS011;34770;49.272;11.070;2023-03-14T00:34:06;1.55;;;1.35;;
16029;SDS011;34770;49.272;11.070;2023-03-14T00:36:32;1.20;;;1.17;;
16029;SDS011;34770;49.272;11.070;2023-03-14T00:38:57;1.63;;;1.33;;
16029;SDS011;34770;49.272;11.070;2023-03-14T00:41:23;1.52;;;1.42;;
16029;SDS011;34770;49.272;11.070;2023-03-14T00:43:49;2.67;;;1.05;;
16029;SDS011;34770;49.272;11.070;2023-03-14T00:46:15;1.55;;;1.45;;
16029;SDS011;34770;49.272;11.070;2023-03-14T00:48:40;1.63;;;1.52;;
16029;SDS011;34770;49.272;11.070;2023-03-14T00:51:06;1.17;;;1.17;;
16029;SDS011;34770;49.272;11.070;2023-03-14T00:53:37;1.17;;;1.17;;
16029;SDS011;34770;49.272;11.070;2023-03-14T00:56:04;1.23;;;1.23;;
16029;SDS011;34770;49.272;11.070;2023-03-14T00:58:32;1.95;;;1.40;;
16029;SDS011;34770;49.272;11.070;2023-03-14T01:00:58;0.93;;;0.93;;
16029;SDS011;34770;49.272;11.070;2023-03-14T01:03:23;1.10;;;1.10;;
16029;SDS011;34770;49.272;11.070;2023-03-14T01:05:49;1.23;;;1.23;;
16029;SDS011;34770;49.272;11.070;2023-03-14T01:08:15;1.13;;;1.13;;
16029;SDS011;34770;49.272;11.070;2023-03-14T01:10:40;0.80;;;0.80;;
16029;SDS011;34770;49.272;11.070;2023-03-14T01:13:06;1.30;;;1.30;;
16029;SDS011;34770;49.272;11.070;2023-03-14T01:15:33;1.30;;;1.30;;
16029;SDS011;34770;49.272;11.070;2023-03-14T01:17:59;1.50;;;1.50;;
16029;SDS011;34770;49.272;11.070;2023-03-14T01:20:24;1.00;;;1.00;;
16029;SDS011;34770;49.272;11.070;2023-03-14T01:22:50;1.52;;;1.52;;
16029;SDS011;34770;49.272;11.070;2023-03-14T01:25:16;1.00;;;1.00;;
16029;SDS011;34770;49.272;11.070;2023-03-14T01:27:42;1.13;;;1.13;;
16029;SDS011;34770;49.272;11.070;2023-03-14T01:30:08;1.10;;;1.10;;
16029;SDS011;34770;49.272;11.070;2023-03-14T01:32:34;1.20;;;1.17;;
16029;SDS011;34770;49.272;11.070;2023-03-14T01:34:59;1.25;;;1.17;;
16029;SDS011;34770;49.272;11.070;2023-03-14T01:37:25;1.30;;;1.30;;
16029;SDS011;34770;49.272;11.070;2023-03-14T01:39:50;1.23;;;1.13;;
16029;SDS011;34770;49.272;11.070;2023-03-14T01:42:16;1.10;;;1.10;;
16029;SDS011;34770;49.272;11.070;2023-03-14T01:44:58;1.20;;;1.20;;
16029;SDS011;34770;49.272;11.070;2023-03-14T01:47:25;0.95;;;0.95;;
16029;SDS011;34770;49.272;11.070;2023-03-14T01:49:56;1.30;;;1.20;;
16029;SDS011;34770;49.272;11.070;2023-03-14T01:52:47;1.38;;;1.27;;
16029;SDS011;34770;49.272;11.070;2023-03-14T01:55:21;1.05;;;1.05;;
16029;SDS011;34770;49.272;11.070;2023-03-14T01:57:53;1.10;;;1.10;;
16029;SDS011;34770;49.272;11.070;2023-03-14T02:00:24;1.15;;;1.10;;
16029;SDS011;34770;49.272;11.070;2023-03-14T02:02:51;1.10;;;1.10;;
16029;SDS011;34770;49.272;11.070;2023-03-14T02:05:31;0.90;;;0.90;;
16029;SDS011;34770;49.272;11.070;2023-03-14T02:08:00;1.00;;;1.00;;
16029;SDS011;34770;49.272;11.070;2023-03-14T02:10:28;1.20;;;0.95;;
16029;SDS011;34770;49.272;11.070;2023-03-14T02:12:56;2.28;;;1.98;;
16029;SDS011;34770;49.272;11.070;2023-03-14T02:15:26;0.90;;;0.90;;
16029;SDS011;34770;49.272;11.070;2023-03-14T02:17:52;1.40;;;1.40;;
16029;SDS011;34770;49.272;11.070;2023-03-14T02:23:16;1.10;;;1.10;;
16029;SDS011;34770;49.272;11.070;2023-03-14T02:28:33;1.25;;;1.17;;
16029;SDS011;34770;49.272;11.070;2023-03-14T02:30:59;1.13;;;1.13;;
16029;SDS011;34770;49.272;11.070;2023-03-14T02:33:24;1.00;;;1.00;;
16029;SDS011;34770;49.272;11.070;2023-03-14T02:35:52;1.88;;;0.85;;
16029;SDS011;34770;49.272;11.070;2023-03-14T02:38:22;1.10;;;1.10;;
16029;SDS011;34770;49.272;11.070;2023-03-14T02:41:11;1.20;;;1.20;;
16029;SDS011;34770;49.272;11.070;2023-03-14T02:43:37;1.42;;;1.02;;
16029;SDS011;34770;49.272;11.070;2023-03-14T02:46:02;1.50;;;1.50;;
16029;SDS011;34770;49.272;11.070;2023-03-14T02:48:31;2.78;;;1.40;;
16029;SDS011;34770;49.272;11.070;2023-03-14T02:51:02;1.15;;;1.10;;
16029;SDS011;34770;49.272;11.070;2023-03-14T02:53:29;0.93;;;0.93;;
16029;SDS011;34770;49.272;11.070;2023-03-14T02:55:56;0.80;;;0.80;;
16029;SDS011;34770;49.272;11.070;2023-03-14T02:58:22;1.20;;;1.20;;
16029;SDS011;34770;49.272;11.070;2023-03-14T03:00:48;1.40;;;1.27;;
16029;SDS011;34770;49.272;11.070;2023-03-14T03:03:13;1.08;;;1.08;;
16029;SDS011;34770;49.272;11.070;2023-03-14T03:05:39;1.38;;;1.38;;
16029;SDS011;34770;49.272;11.070;2023-03-14T03:08:05;1.20;;;1.20;;
16029;SDS011;34770;49.272;11.070;2023-03-14T03:10:31;1.20;;;1.10;;
16029;SDS011;34770;49.272;11.070;2023-03-14T03:12:57;1.00;;;1.00;;
16029;SDS011;34770;49.272;11.070;2023-03-14T03:15:22;1.08;;;1.08;;
16029;SDS011;34770;49.272;11.070;2023-03-14T03:17:48;3.20;;;1.08;;
16029;SDS011;34770;49.272;11.070;2023-03-14T03:20:14;1.73;;;1.63;;
16029;SDS011;34770;49.272;11.070;2023-03-14T03:22:39;1.75;;;1.58;;
16029;SDS011;34770;49.272;11.070;2023-03-14T03:25:05;6.10;;;3.13;;
16029;SDS011;34770;49.272;11.070;2023-03-14T03:27:32;4.15;;;2.97;;
16029;SDS011;34770;49.272;11.070;2023-03-14T03:29:59;2.25;;;1.80;;
16029;SDS011;34770;49.272;11.070;2023-03-14T03:32:24;2.05;;;1.50;;
16029;SDS011;34770;49.272;11.070;2023-03-14T03:34:50;1.40;;;1.30;;
16029;SDS011;34770;49.272;11.070;2023-03-14T03:37:16;1.40;;;1.20;;
16029;SDS011;34770;49.272;11.070;2023-03-14T03:39:41;1.95;;;1.63;;
16029;SDS011;34770;49.272;11.070;2023-03-14T03:42:07;1.80;;;1.70;;
16029;SDS011;34770;49.272;11.070;2023-03-14T03:44:33;3.08;;;1.48;;
16029;SDS011;34770;49.272;11.070;2023-03-14T03:46:58;1.48;;;1.38;;
16029;SDS011;34770;49.272;11.070;2023-03-14T03:49:24;1.25;;;1.25;;
16029;SDS011;34770;49.272;11.070;2023-03-14T03:51:49;1.63;;;1.30;;
16029;SDS011;34770;49.272;11.070;2023-03-14T03:54:15;1.00;;;1.00;;
16029;SDS011;34770;49.272;11.070;2023-03-14T03:56:40;1.25;;;1.00;;
16029;SDS011;34770;49.272;11.070;2023-03-14T03:59:06;0.93;;;0.93;;
16029;SDS011;34770;49.272;11.070;2023-03-14T04:01:31;1.33;;;1.23;;
16029;SDS011;34770;49.272;11.070;2023-03-14T04:03:57;1.60;;;1.50;;
16029;SDS011;34770;49.272;11.070;2023-03-14T04:06:22;1.80;;;1.70;;
16029;SDS011;34770;49.272;11.070;2023-03-14T04:08:48;1.80;;;1.70;;
16029;SDS011;34770;49.272;11.070;2023-03-14T04:11:13;1.70;;;1.60;;
16029;SDS011;34770;49.272;11.070;2023-03-14T04:13:39;1.50;;;1.40;;
16029;SDS011;34770;49.272;11.070;2023-03-14T04:16:08;1.70;;;1.60;;
16029;SDS011;34770;49.272;11.070;2023-03-14T04:18:45;1.80;;;1.70;;
16029;SDS011;34770;49.272;11.070;2023-03-14T04:21:10;1.55;;;1.45;;
16029;SDS011;34770;49.272;11.070;2023-03-14T04:23:36;1.70;;;1.60;;
16029;SDS011;34770;49.272;11.070;2023-03-14T04:26:02;1.83;;;1.73;;
16029;SDS011;34770;49.272;11.070;2023-03-14T04:28:27;2.35;;;1.52;;
16029;SDS011;34770;49.272;11.070;2023-03-14T04:30:53;1.88;;;1.70;;
16029;SDS011;34770;49.272;11.070;2023-03-14T04:33:18;1.40;;;1.40;;
16029;SDS011;34770;49.272;11.070;2023-03-14T04:35:44;1.23;;;1.23;;
16029;SDS011;34770;49.272;11.070;2023-03-14T04:38:11;1.63;;;1.52;;
16029;SDS011;34770;49.272;11.070;2023-03-14T04:40:37;1.75;;;1.20;;
16029;SDS011;34770;49.272;11.070;2023-03-14T04:43:04;1.98;;;1.85;;
16029;SDS011;34770;49.272;11.070;2023-03-14T04:45:29;1.23;;;1.20;;
16029;SDS011;34770;49.272;11.070;2023-03-14T04:47:55;1.15;;;1.15;;
16029;SDS011;34770;49.272;11.070;2023-03-14T04:50:20;1.70;;;1.60;;
16029;SDS011;34770;49.272;11.070;2023-03-14T04:52:46;1.90;;;1.80;;
16029;SDS011;34770;49.272;11.070;2023-03-14T04:55:11;2.22;;;1.45;;
16029;SDS011;34770;49.272;11.070;2023-03-14T04:57:37;2.17;;;1.10;;
16029;SDS011;34770;49.272;11.070;2023-03-14T05:00:03;1.58;;;1.48;;
16029;SDS011;34770;49.272;11.070;2023-03-14T05:02:32;1.48;;;1.48;;
16029;SDS011;34770;49.272;11.070;2023-03-14T05:04:59;1.30;;;1.30;;
16029;SDS011;34770;49.272;11.070;2023-03-14T05:07:24;1.30;;;1.30;;
16029;SDS011;34770;49.272;11.070;2023-03-14T05:09:50;1.35;;;1.30;;
16029;SDS011;34770;49.272;11.070;2023-03-14T05:12:15;1.60;;;1.50;;
16029;SDS011;34770;49.272;11.070;2023-03-14T05:14:41;1.90;;;1.30;;
16029;SDS011;34770;49.272;11.070;2023-03-14T05:17:06;1.35;;;1.27;;
16029;SDS011;34770;49.272;11.070;2023-03-14T05:19:32;1.58;;;1.55;;
16029;SDS011;34770;49.272;11.070;2023-03-14T05:21:57;1.80;;;1.70;;
16029;SDS011;34770;49.272;11.070;2023-03-14T05:24:23;3.05;;;1.45;;
16029;SDS011;34770;49.272;11.070;2023-03-14T05:26:48;1.20;;;1.20;;
16029;SDS011;34770;49.272;11.070;2023-03-14T05:29:14;1.45;;;1.35;;
16029;SDS011;34770;49.272;11.070;2023-03-14T05:31:39;1.60;;;1.50;;
16029;SDS011;34770;49.272;11.070;2023-03-14T05:34:05;1.30;;;1.23;;
16029;SDS011;34770;49.272;11.070;2023-03-14T05:36:30;1.83;;;1.65;;
16029;SDS011;34770;49.272;11.070;2023-03-14T05:38:56;2.00;;;1.90;;
16029;SDS011;34770;49.272;11.070;2023-03-14T05:41:21;2.80;;;2.65;;
16029;SDS011;34770;49.272;11.070;2023-03-14T05:43:47;1.10;;;1.10;;
16029;SDS011;34770;49.272;11.070;2023-03-14T05:46:12;1.45;;;1.35;;
16029;SDS011;34770;49.272;11.070;2023-03-14T05:48:38;1.52;;;1.52;;
16029;SDS011;34770;49.272;11.070;2023-03-14T05:51:03;1.55;;;1.50;;
16029;SDS011;34770;49.272;11.070;2023-03-14T05:53:29;1.88;;;1.77;;
16029;SDS011;34770;49.272;11.070;2023-03-14T05:55:55;1.52;;;1.42;;
16029;SDS011;34770;49.272;11.070;2023-03-14T05:58:21;1.60;;;1.50;;
16029;SDS011;34770;49.272;11.070;2023-03-14T06:00:46;1.58;;;1.48;;
16029;SDS011;34770;49.272;11.070;2023-03-14T06:03:12;1.98;;;1.77;;
16029;SDS011;34770;49.272;11.070;2023-03-14T06:05:38;1.88;;;1.77;;
16029;SDS011;34770;49.272;11.070;2023-03-14T06:08:03;1.70;;;1.60;;
16029;SDS011;34770;49.272;11.070;2023-03-14T06:10:29;3.17;;;1.90;;
16029;SDS011;34770;49.272;11.070;2023-03-14T06:12:55;1.88;;;1.77;;
16029;SDS011;34770;49.272;11.070;2023-03-14T06:15:23;1.90;;;1.80;;
16029;SDS011;34770;49.272;11.070;2023-03-14T06:17:48;2.38;;;2.17;;
16029;SDS011;34770;49.272;11.070;2023-03-14T06:20:14;2.17;;;1.98;;
16029;SDS011;34770;49.272;11.070;2023-03-14T06:22:39;1.90;;;1.80;;
16029;SDS011;34770;49.272;11.070;2023-03-14T06:25:05;2.30;;;2.20;;
16029;SDS011;34770;49.272;11.070;2023-03-14T06:27:32;2.00;;;1.60;;
16029;SDS011;34770;49.272;11.070;2023-03-14T06:29:58;1.52;;;1.42;;
16029;SDS011;34770;49.272;11.070;2023-03-14T06:32:23;1.92;;;1.80;;
16029;SDS011;34770;49.272;11.070;2023-03-14T06:34:49;2.75;;;1.90;;
16029;SDS011;34770;49.272;11.070;2023-03-14T06:37:15;2.25;;;2.15;;
16029;SDS011;34770;49.272;11.070;2023-03-14T06:39:41;2.80;;;2.60;;
16029;SDS011;34770;49.272;11.070;2023-03-14T06:42:06;2.58;;;2.47;;
16029;SDS011;34770;49.272;11.070;2023-03-14T06:44:32;3.92;;;3.63;;
16029;SDS011;34770;49.272;11.070;2023-03-14T06:46:57;4.18;;;3.75;;
16029;SDS011;34770;49.272;11.070;2023-03-14T06:49:23;2.90;;;2.70;;
16029;SDS011;34770;49.272;11.070;2023-03-14T06:51:48;2.40;;;2.20;;
16029;SDS011;34770;49.272;11.070;2023-03-14T06:54:14;2.80;;;2.60;;
16029;SDS011;34770;49.272;11.070;2023-03-14T06:56:39;3.63;;;3.25;;
16029;SDS011;34770;49.272;11.070;2023-03-14T06:59:04;3.63;;;2.60;;
16029;SDS011;34770;49.272;11.070;2023-03-14T07:01:30;3.28;;;2.97;;
16029;SDS011;34770;49.272;11.070;2023-03-14T07:03:57;4.68;;;2.50;;
16029;SDS011;34770;49.272;11.070;2023-03-14T07:06:23;4.28;;;2.70;;
16029;SDS011;34770;49.272;11.070;2023-03-14T07:08:48;3.00;;;2.70;;
16029;SDS011;34770;49.272;11.070;2023-03-14T07:11:14;3.83;;;3.45;;
16029;SDS011;34770;49.272;11.070;2023-03-14T07:13:39;3.55;;;3.33;;
16029;SDS011;34770;49.272;11.070;2023-03-14T07:16:06;3.30;;;3.00;;
16029;SDS011;34770;49.272;11.070;2023-03-14T07:18:32;2.28;;;2.17;;
16029;SDS011;34770;49.272;11.070;2023-03-14T07:20:57;1.70;;;1.60;;
16029;SDS011;34770;49.272;11.070;2023-03-14T07:23:23;1.83;;;1.73;;
16029;SDS011;34770;49.272;11.070;2023-03-14T07:25:48;1.80;;;1.70;;
16029;SDS011;34770;49.272;11.070;2023-03-14T07:28:15;1.73;;;1.65;;
16029;SDS011;34770;49.272;11.070;2023-03-14T07:30:41;1.70;;;1.60;;
16029;SDS011;34770;49.272;11.070;2023-03-14T07:33:06;2.05;;;1.95;;
16029;SDS011;34770;49.272;11.070;2023-03-14T07:35:32;1.80;;;1.70;;
16029;SDS011;34770;49.272;11.070;2023-03-14T07:37:57;2.03;;;1.92;;
16029;SDS011;34770;49.272;11.070;2023-03-14T07:40:22;3.00;;;1.83;;
16029;SDS011;34770;49.272;11.070;2023-03-14T07:42:48;2.40;;;2.20;;
16029;SDS011;34770;49.272;11.070;2023-03-14T07:45:14;3.75;;;2.10;;
16029;SDS011;34770;49.272;11.070;2023-03-14T07:47:39;3.03;;;2.72;;
16029;SDS011;34770;49.272;11.070;2023-03-14T07:50:05;1.90;;;1.77;;
16029;SDS011;34770;49.272;11.070;2023-03-14T07:52:31;4.32;;;2.33;;
16029;SDS011;34770;49.272;11.070;2023-03-14T07:54:57;1.90;;;1.80;;
16029;SDS011;34770;49.272;11.070;2023-03-14T07:57:22;2.42;;;1.92;;
16029;SDS011;34770;49.272;11.070;2023-03-14T07:59:49;2.38;;;2.17;;
16029;SDS011;34770;49.272;11.070;2023-03-14T08:02:14;2.22;;;1.92;;
16029;SDS011;34770;49.272;11.070;2023-03-14T08:04:40;1.75;;;1.45;;
16029;SDS011;34770;49.272;11.070;2023-03-14T08:07:06;3.40;;;1.75;;
16029;SDS011;34770;49.272;11.070;2023-03-14T08:09:32;2.30;;;2.10;;
16029;SDS011;34770;49.272;11.070;2023-03-14T08:11:57;2.70;;;2.50;;
16029;SDS011;34770;49.272;11.070;2023-03-14T08:14:23;1.88;;;1.77;;
16029;SDS011;34770;49.272;11.070;2023-03-14T08:16:51;1.48;;;1.38;;
16029;SDS011;34770;49.272;11.070;2023-03-14T08:19:17;1.70;;;1.60;;
16029;SDS011;34770;49.272;11.070;2023-03-14T08:21:42;1.60;;;1.50;;
16029;SDS011;34770;49.272;11.070;2023-03-14T08:24:07;1.70;;;1.60;;
16029;SDS011;34770;49.272;11.070;2023-03-14T08:26:33;1.85;;;1.75;;
16029;SDS011;34770;49.272;11.070;2023-03-14T08:28:59;2.05;;;1.75;;
16029;SDS011;34770;49.272;11.070;2023-03-14T08:31:24;1.80;;;1.70;;
16029;SDS011;34770;49.272;11.070;2023-03-14T08:33:50;1.50;;;1.40;;
16029;SDS011;34770;49.272;11.070;2023-03-14T08:36:17;1.80;;;1.65;;
16029;SDS011;34770;49.272;11.070;2023-03-14T08:38:43;4.50;;;1.80;;
16029;SDS011;34770;49.272;11.070;2023-03-14T08:41:08;2.83;;;1.70;;
16029;SDS011;34770;49.272;11.070;2023-03-14T08:43:34;1.50;;;1.40;;
16029;SDS011;34770;49.272;11.070;2023-03-14T08:46:00;1.73;;;1.50;;
16029;SDS011;34770;49.272;11.070;2023-03-14T08:48:27;3.42;;;2.05;;
16029;SDS011;34770;49.272;11.070;2023-03-14T08:50:54;2.45;;;1.58;;
16029;SDS011;34770;49.272;11.070;2023-03-14T08:53:20;3.20;;;1.65;;
16029;SDS011;34770;49.272;11.070;2023-03-14T08:55:47;3.42;;;1.83;;
16029;SDS011;34770;49.272;11.070;2023-03-14T08:58:12;2.55;;;2.35;;
16029;SDS011;34770;49.272;11.070;2023-03-14T09:00:38;4.32;;;2.00;;
16029;SDS011;34770;49.272;11.070;2023-03-14T09:03:03;2.13;;;2.00;;
16029;SDS011;34770;49.272;11.070;2023-03-14T09:05:29;2.30;;;2.10;;
16029;SDS011;34770;49.272;11.070;2023-03-14T09:07:57;3.90;;;2.80;;
16029;SDS011;34770;49.272;11.070;2023-03-14T09:10:23;2.40;;;1.63;;
16029;SDS011;34770;49.272;11.070;2023-03-14T09:12:48;1.80;;;1.63;;
16029;SDS011;34770;49.272;11.070;2023-03-14T09:15:14;4.40;;;2.22;;
16029;SDS011;34770;49.272;11.070;2023-03-14T09:17:39;2.75;;;1.70;;
16029;SDS011;34770;49.272;11.070;2023-03-14T09:20:07;4.72;;;2.90;;
16029;SDS011;34770;49.272;11.070;2023-03-14T09:22:33;3.40;;;1.80;;
16029;SDS011;34770;49.272;11.070;2023-03-14T09:25:00;2.08;;;1.88;;
16029;SDS011;34770;49.272;11.070;2023-03-14T09:27:27;3.45;;;2.80;;
16029;SDS011;34770;49.272;11.070;2023-03-14T09:29:52;1.25;;;1.15;;
16029;SDS011;34770;49.272;11.070;2023-03-14T09:32:18;1.23;;;1.23;;
16029;SDS011;34770;49.272;11.070;2023-03-14T09:34:43;3.75;;;2.30;;
16029;SDS011;34770;49.272;11.070;2023-03-14T09:37:09;1.70;;;1.60;;
16029;SDS011;34770;49.272;11.070;2023-03-14T09:39:34;1.02;;;1.02;;
16029;SDS011;34770;49.272;11.070;2023-03-14T09:42:01;1.60;;;1.50;;
16029;SDS011;34770;49.272;11.070;2023-03-14T09:44:34;2.00;;;1.90;;
16029;SDS011;34770;49.272;11.070;2023-03-14T09:47:04;1.75;;;1.27;;
16029;SDS011;34770;49.272;11.070;2023-03-14T09:49:33;4.47;;;1.50;;
16029;SDS011;34770;49.272;11.070;2023-03-14T09:52:05;3.33;;;1.92;;
16029;SDS011;34770;49.272;11.070;2023-03-14T09:54:39;1.13;;;1.08;;
16029;SDS011;34770;49.272;11.070;2023-03-14T09:57:16;7.55;;;1.67;;
16029;SDS011;34770;49.272;11.070;2023-03-14T09:59:46;3.30;;;2.15;;
16029;SDS011;34770;49.272;11.070;2023-03-14T10:04:45;1.70;;;1.60;;
16029;SDS011;34770;49.272;11.070;2023-03-14T10:07:15;1.90;;;1.80;;
16029;SDS011;34770;49.272;11.070;2023-03-14T10:09:45;4.00;;;1.67;;
16029;SDS011;34770;49.272;11.070;2023-03-14T10:12:13;3.70;;;2.30;;
16029;SDS011;34770;49.272;11.070;2023-03-14T10:14:44;1.75;;;1.65;;
16029;SDS011;34770;49.272;11.070;2023-03-14T10:17:16;4.32;;;2.20;;
16029;SDS011;34770;49.272;11.070;2023-03-14T10:19:56;1.55;;;1.45;;
16029;SDS011;34770;49.272;11.070;2023-03-14T10:22:24;1.95;;;1.80;;
16029;SDS011;34770;49.272;11.070;2023-03-14T10:24:55;4.07;;;1.73;;
16029;SDS011;34770;49.272;11.070;2023-03-14T10:27:34;5.03;;;2.50;;
16029;SDS011;34770;49.272;11.070;2023-03-14T10:30:05;3.17;;;2.40;;
16029;SDS011;34770;49.272;11.070;2023-03-14T10:32:34;1.20;;;1.20;;
16029;SDS011;34770;49.272;11.070;2023-03-14T10:37:58;2.20;;;1.45;;
16029;SDS011;34770;49.272;11.070;2023-03-14T10:40:27;2.55;;;1.70;;
16029;SDS011;34770;49.272;11.070;2023-03-14T10:42:57;2.83;;;1.70;;
16029;SDS011;34770;49.272;11.070;2023-03-14T10:48:20;1.52;;;1.35;;
16029;SDS011;34770;49.272;11.070;2023-03-14T10:50:57;1.35;;;1.25;;
16029;SDS011;34770;49.272;11.070;2023-03-14T10:53:32;1.33;;;1.23;;
16029;SDS011;34770;49.272;11.070;2023-03-14T10:56:06;1.63;;;1.25;;
16029;SDS011;34770;49.272;11.070;2023-03-14T10:58:33;1.27;;;1.10;;
16029;SDS011;34770;49.272;11.070;2023-03-14T11:01:26;1.60;;;1.17;;
16029;SDS011;34770;49.272;11.070;2023-03-14T11:13:00;2.33;;;1.30;;
16029;SDS011;34770;49.272;11.070;2023-03-14T11:15:34;1.42;;;1.30;;
16029;SDS011;34770;49.272;11.070;2023-03-14T11:18:09;1.98;;;1.20;;
16029;SDS011;34770;49.272;11.070;2023-03-14T11:20:50;2.25;;;1.30;;
16029;SDS011;34770;49.272;11.070;2023-03-14T11:23:25;1.30;;;1.25;;
16029;SDS011;34770;49.272;11.070;2023-03-14T11:29:12;1.83;;;1.40;;
16029;SDS011;34770;49.272;11.070;2023-03-14T11:31:42;0.98;;;0.98;;
16029;SDS011;34770;49.272;11.070;2023-03-14T11:34:12;1.17;;;1.13;;
16029;SDS011;34770;49.272;11.070;2023-03-14T11:37:00;2.55;;;2.35;;
16029;SDS011;34770;49.272;11.070;2023-03-14T11:39:38;1.35;;;1.10;;
16029;SDS011;34770;49.272;11.070;2023-03-14T11:42:08;1.00;;;1.00;;
16029;SDS011;34770;49.272;11.070;2023-03-14T11:44:38;1.10;;;1.10;;
16029;SDS011;34770;49.272;11.070;2023-03-14T11:49:43;1.10;;;1.10;;
16029;SDS011;34770;49.272;11.070;2023-03-14T11:52:16;6.18;;;1.10;;
16029;SDS011;34770;49.272;11.070;2023-03-14T11:57:22;1.88;;;0.80;;
16029;SDS011;34770;49.272;11.070;2023-03-14T11:59:50;0.90;;;0.90;;
16029;SDS011;34770;49.272;11.070;2023-03-14T12:13:11;0.80;;;0.80;;
16029;SDS011;34770;49.272;11.070;2023-03-14T12:15:40;0.90;;;0.90;;
16029;SDS011;34770;49.272;11.070;2023-03-14T12:18:30;0.80;;;0.80;;
16029;SDS011;34770;49.272;11.070;2023-03-14T12:21:03;0.90;;;0.90;;
16029;SDS011;34770;49.272;11.070;2023-03-14T12:23:35;1.25;;;1.15;;
16029;SDS011;34770;49.272;11.070;2023-03-14T12:26:15;0.93;;;0.93;;
16029;SDS011;34770;49.272;11.070;2023-03-14T12:28:52;1.05;;;1.00;;
16029;SDS011;34770;49.272;11.070;2023-03-14T12:44:45;0.73;;;0.73;;
16029;SDS011;34770;49.272;11.070;2023-03-14T12:47:40;1.15;;;1.05;;
16029;SDS011;34770;49.272;11.070;2023-03-14T12:49:57;1.48;;;1.38;;
16029;SDS011;34770;49.272;11.070;2023-03-14T12:52:37;2.05;;;1.20;;
16029;SDS011;34770;49.272;11.070;2023-03-14T12:55:20;2.50;;;2.30;;
16029;SDS011;34770;49.272;11.070;2023-03-14T12:58:15;1.17;;;1.10;;
16029;SDS011;34770;49.272;11.070;2023-03-14T13:00:54;1.10;;;1.10;;
16029;SDS011;34770;49.272;11.070;2023-03-14T13:03:22;0.90;;;0.90;;
16029;SDS011;34770;49.272;11.070;2023-03-14T13:06:00;0.80;;;0.80;;
16029;SDS011;34770;49.272;11.070;2023-03-14T13:13:41;0.70;;;0.70;;
16029;SDS011;34770;49.272;11.070;2023-03-14T13:16:16;1.30;;;1.15;;
16029;SDS011;34770;49.272;11.070;2023-03-14T13:18:45;0.95;;;0.95;;
16029;SDS011;34770;49.272;11.070;2023-03-14T13:21:16;1.50;;;1.40;;
16029;SDS011;34770;49.272;11.070;2023-03-14T13:24:01;1.23;;;1.10;;
16029;SDS011;34770;49.272;11.070;2023-03-14T13:26:39;1.20;;;1.20;;
16029;SDS011;34770;49.272;11.070;2023-03-14T13:29:17;1.05;;;1.05;;
16029;SDS011;34770;49.272;11.070;2023-03-14T13:31:49;1.17;;;1.10;;
16029;SDS011;34770;49.272;11.070;2023-03-14T13:34:17;1.02;;;1.02;;
16029;SDS011;34770;49.272;11.070;2023-03-14T13:36:43;1.25;;;1.25;;
16029;SDS011;34770;49.272;11.070;2023-03-14T13:39:19;1.02;;;1.00;;
16029;SDS011;34770;49.272;11.070;2023-03-14T13:41:49;2.17;;;1.65;;
16029;SDS011;34770;49.272;11.070;2023-03-14T13:44:35;1.00;;;1.00;;
16029;SDS011;34770;49.272;11.070;2023-03-14T13:47:04;1.45;;;1.35;;
16029;SDS011;34770;49.272;11.070;2023-03-14T13:49:36;1.20;;;1.20;;
16029;SDS011;34770;49.272;11.070;2023-03-14T13:52:03;1.80;;;1.70;;
16029;SDS011;34770;49.272;11.070;2023-03-14T13:54:29;1.15;;;1.15;;
16029;SDS011;34770;49.272;11.070;2023-03-14T13:57:00;2.55;;;1.65;;
16029;SDS011;34770;49.272;11.070;2023-03-14T13:59:28;1.65;;;1.55;;
16029;SDS011;34770;49.272;11.070;2023-03-14T14:01:59;1.33;;;1.23;;
16029;SDS011;34770;49.272;11.070;2023-03-14T14:04:29;1.05;;;1.05;;
16029;SDS011;34770;49.272;11.070;2023-03-14T14:06:59;1.88;;;1.77;;
16029;SDS011;34770;49.272;11.070;2023-03-14T14:12:05;2.45;;;1.58;;
16029;SDS011;34770;49.272;11.070;2023-03-14T14:14:44;1.83;;;1.73;;
16029;SDS011;34770;49.272;11.070;2023-03-14T14:17:32;2.10;;;1.75;;
16029;SDS011;34770;49.272;11.070;2023-03-14T14:20:03;1.48;;;1.38;;
16029;SDS011;34770;49.272;11.070;2023-03-14T14:22:31;1.10;;;1.08;;
16029;SDS011;34770;49.272;11.070;2023-03-14T14:24:57;1.98;;;1.73;;
16029;SDS011;34770;49.272;11.070;2023-03-14T14:27:24;1.73;;;1.58;;
16029;SDS011;34770;49.272;11.070;2023-03-14T14:30:04;1.50;;;1.40;;
16029;SDS011;34770;49.272;11.070;2023-03-14T14:32:35;1.80;;;1.70;;
16029;SDS011;34770;49.272;11.070;2023-03-14T14:35:05;1.88;;;1.58;;
16029;SDS011;34770;49.272;11.070;2023-03-14T14:37:33;1.73;;;1.63;;
16029;SDS011;34770;49.272;11.070;2023-03-14T14:40:09;1.30;;;1.30;;
16029;SDS011;34770;49.272;11.070;2023-03-14T14:42:41;1.50;;;1.40;;
16029;SDS011;34770;49.272;11.070;2023-03-14T14:45:11;1.48;;;1.40;;
16029;SDS011;34770;49.272;11.070;2023-03-14T14:47:51;1.95;;;1.85;;
16029;SDS011;34770;49.272;11.070;2023-03-14T14:50:28;1.42;;;1.42;;
16029;SDS011;34770;49.272;11.070;2023-03-14T14:53:02;1.90;;;1.80;;
16029;SDS011;34770;49.272;11.070;2023-03-14T14:55:44;1.85;;;1.75;;
16029;SDS011;34770;49.272;11.070;2023-03-14T14:58:11;1.88;;;1.60;;
16029;SDS011;34770;49.272;11.070;2023-03-14T15:00:48;4.00;;;1.48;;
16029;SDS011;34770;49.272;11.070;2023-03-14T15:03:17;1.63;;;1.52;;
16029;SDS011;34770;49.272;11.070;2023-03-14T15:05:43;1.70;;;1.60;;
16029;SDS011;34770;49.272;11.070;2023-03-14T15:08:12;1.52;;;1.42;;
16029;SDS011;34770;49.272;11.070;2023-03-14T15:10:38;1.98;;;1.88;;
16029;SDS011;34770;49.272;11.070;2023-03-14T15:13:03;2.38;;;2.17;;
16029;SDS011;34770;49.272;11.070;2023-03-14T15:15:30;1.85;;;1.75;;
16029;SDS011;34770;49.272;11.070;2023-03-14T15:17:56;2.05;;;1.90;;
16029;SDS011;34770;49.272;11.070;2023-03-14T15:20:22;2.22;;;2.00;;
16029;SDS011;34770;49.272;11.070;2023-03-14T15:22:50;1.90;;;1.80;;
16029;SDS011;34770;49.272;11.070;2023-03-14T15:25:16;1.60;;;1.50;;
16029;SDS011;34770;49.272;11.070;2023-03-14T15:27:42;3.78;;;2.00;;
16029;SDS011;34770;49.272;11.070;2023-03-14T15:30:17;1.80;;;1.70;;
16029;SDS011;34770;49.272;11.070;2023-03-14T15:32:43;1.52;;;1.50;;
16029;SDS011;34770;49.272;11.070;2023-03-14T15:35:09;1.90;;;1.80;;
16029;SDS011;34770;49.272;11.070;2023-03-14T15:37:34;1.75;;;1.65;;
16029;SDS011;34770;49.272;11.070;2023-03-14T15:40:00;2.38;;;2.17;;
16029;SDS011;34770;49.272;11.070;2023-03-14T15:42:29;2.10;;;2.00;;